Chofu, Japan

2:40 PM JST on October 23, 2014 (GMT +0900)
Kyuden | Change Station
CLOSE
Current Station
Personal Weather Station
Location: Setagaya, TOKYO
Elevation: 164 ft
Nearby Weather Stations

Elev 164 ft 35.66 °N, 139.59 °E | Updated 29 seconds ago

Overcast
Overcast
58.1 °F
Feels Like 58.1 °F
N
0.0
Wind Variable Wind from North
Gusts 7.0 mph

Today
High -- | Low -- °F
--% Chance of Precip.
Yesterday
High -- | Low -- °F
Precip. -- in
5:54 AM 4:57 PM
Waning Crescent, 0% visible
Pressure 30.06 in
Visibility 6.2 miles
Clouds Few 1000 ft
Scattered Clouds 2000 ft
Mostly Cloudy 6000 ft
Dew Point 53 °F
Humidity 83%
Rainfall 0.13 in
Snow Depth Not available.
UV 0.6 out of 12
Pollen Not available.
Air Quality Not available.
Flu Activity Not available.
SPECI RJTC 230529Z 01006KT 9999 -RA FEW010 SCT020 BKN060 14/09 Q1018 RMK 1ST010 4SC020 6SC060 A3008

More Conditions Fewer Conditions

Pressure 30.06 in
Visibility 6.2 miles
Clouds Few 1000 ft
Scattered Clouds 2000 ft
Mostly Cloudy 6000 ft
Dew Point 53 °F
Humidity 83%
Rainfall 0.13 in
Snow Depth Not available.
UV 0.6 out of 12
Pollen Not available.
Air Quality Not available.
Flu Activity Not available.
SPECI RJTC 230529Z 01006KT 9999 -RA FEW010 SCT020 BKN060 14/09 Q1018 RMK 1ST010 4SC020 6SC060 A3008

More Conditions Fewer Conditions

10-Day Weather Forecast

Almanac

Astronomy

Oct. 23, 2014 Rise Set
Actual Time 5:54 AM JST 4:57 PM JST
Civil Twilight 5:28 AM JST 5:23 PM JST
Nautical Twilight 4:59 AM JST 5:52 PM JST
Astronomical Twilight 4:29 AM JST 6:22 PM JST
Moon 4:59 AM JST 4:35 PM JST
Length of Visible Light 11h 54m
Length of Day
11h 02m
Tomorrow will be 2m 6s shorter.
Waning Crescent, 0% of the Moon is Illuminated
Today
Waning Crescent
Oct 23
New
Oct 30
First Quarter
Nov 6
Full
Nov 14
Last Quarter

Yesterday's Extremes

Country Highs Country Lows

Community

WunderPhotos

Upload Photos

1,764,188 photos uploaded!

Nearby

Snow Depth

Not available.

Earthquake Activity

City Distance Mag. Time & Date
No recent earthquake activity has been reported nearby.
Minimum magnitude displayed is 2.5.

Coastal Water Temperatures

Place Temperature
No Stations Reporting

Nearby Weather Stations